sensor_id;sensor_type;location;lat;lon;timestamp;temperature;humidity
13433;DHT22;6789;47.678;9.158;2022-11-20T00:01:35;5.70;99.90
13433;DHT22;6789;47.678;9.158;2022-11-20T00:06:50;5.70;99.90
13433;DHT22;6789;47.678;9.158;2022-11-20T00:12:23;5.70;99.90
13433;DHT22;6789;47.678;9.158;2022-11-20T00:17:40;5.70;99.90
13433;DHT22;6789;47.678;9.158;2022-11-20T00:22:46;5.80;99.90
13433;DHT22;6789;47.678;9.158;2022-11-20T00:27:53;5.90;99.90
13433;DHT22;6789;47.678;9.158;2022-11-20T00:33:04;5.90;99.90
13433;DHT22;6789;47.678;9.158;2022-11-20T00:38:33;6.00;99.90
13433;DHT22;6789;47.678;9.158;2022-11-20T00:44:11;6.00;99.90
13433;DHT22;6789;47.678;9.158;2022-11-20T00:49:44;6.10;99.90
13433;DHT22;6789;47.678;9.158;2022-11-20T00:54:52;6.10;99.90
13433;DHT22;6789;47.678;9.158;2022-11-20T01:00:20;6.10;99.90
13433;DHT22;6789;47.678;9.158;2022-11-20T01:05:34;6.20;99.90
13433;DHT22;6789;47.678;9.158;2022-11-20T01:11:18;6.20;99.90
13433;DHT22;6789;47.678;9.158;2022-11-20T01:16:56;6.30;99.90
13433;DHT22;6789;47.678;9.158;2022-11-20T01:22:12;6.40;99.90
13433;DHT22;6789;47.678;9.158;2022-11-20T01:28:16;6.50;99.90
13433;DHT22;6789;47.678;9.158;2022-11-20T01:33:25;6.50;99.90
13433;DHT22;6789;47.678;9.158;2022-11-20T01:38:46;6.40;99.90
13433;DHT22;6789;47.678;9.158;2022-11-20T01:44:05;6.50;99.90
13433;DHT22;6789;47.678;9.158;2022-11-20T01:55:16;6.30;99.90
13433;DHT22;6789;47.678;9.158;2022-11-20T02:00:37;6.20;99.90
13433;DHT22;6789;47.678;9.158;2022-11-20T02:11:24;6.00;99.90
13433;DHT22;6789;47.678;9.158;2022-11-20T02:16:39;6.20;99.90
13433;DHT22;6789;47.678;9.158;2022-11-20T02:22:11;6.10;99.90
13433;DHT22;6789;47.678;9.158;2022-11-20T02:34:14;6.00;99.90
13433;DHT22;6789;47.678;9.158;2022-11-20T02:39:30;5.90;99.90
13433;DHT22;6789;47.678;9.158;2022-11-20T02:44:46;5.80;99.90
13433;DHT22;6789;47.678;9.158;2022-11-20T02:49:52;5.80;99.90
13433;DHT22;6789;47.678;9.158;2022-11-20T02:55:03;6.00;99.90
13433;DHT22;6789;47.678;9.158;2022-11-20T03:00:11;6.10;99.90
13433;DHT22;6789;47.678;9.158;2022-11-20T03:05:25;6.10;99.90
13433;DHT22;6789;47.678;9.158;2022-11-20T03:10:54;6.20;99.90
13433;DHT22;6789;47.678;9.158;2022-11-20T03:15:46;6.20;99.90
13433;DHT22;6789;47.678;9.158;2022-11-20T03:20:57;6.30;99.90
13433;DHT22;6789;47.678;9.158;2022-11-20T03:25:50;6.30;99.90
13433;DHT22;6789;47.678;9.158;2022-11-20T03:30:57;6.30;99.90
13433;DHT22;6789;47.678;9.158;2022-11-20T03:35:49;6.30;99.90
13433;DHT22;6789;47.678;9.158;2022-11-20T03:40:41;6.30;99.90
13433;DHT22;6789;47.678;9.158;2022-11-20T03:45:32;6.30;99.90
13433;DHT22;6789;47.678;9.158;2022-11-20T03:50:24;6.30;99.90
13433;DHT22;6789;47.678;9.158;2022-11-20T03:55:16;6.30;99.90
13433;DHT22;6789;47.678;9.158;2022-11-20T04:00:08;6.20;99.90
13433;DHT22;6789;47.678;9.158;2022-11-20T04:05:00;6.10;99.90
13433;DHT22;6789;47.678;9.158;2022-11-20T04:09:52;6.00;99.90
13433;DHT22;6789;47.678;9.158;2022-11-20T04:14:44;5.90;99.90
13433;DHT22;6789;47.678;9.158;2022-11-20T04:19:36;6.10;99.90
13433;DHT22;6789;47.678;9.158;2022-11-20T04:24:27;6.20;99.90
13433;DHT22;6789;47.678;9.158;2022-11-20T04:29:19;6.10;99.90
13433;DHT22;6789;47.678;9.158;2022-11-20T04:34:12;6.00;99.90
13433;DHT22;6789;47.678;9.158;2022-11-20T04:39:06;5.90;99.90
13433;DHT22;6789;47.678;9.158;2022-11-20T04:43:59;5.80;99.90
13433;DHT22;6789;47.678;9.158;2022-11-20T04:48:55;5.80;99.90
13433;DHT22;6789;47.678;9.158;2022-11-20T04:53:47;5.80;99.90
13433;DHT22;6789;47.678;9.158;2022-11-20T04:58:39;5.60;99.90
13433;DHT22;6789;47.678;9.158;2022-11-20T05:03:32;5.50;99.90
13433;DHT22;6789;47.678;9.158;2022-11-20T05:08:39;5.50;99.90
13433;DHT22;6789;47.678;9.158;2022-11-20T05:13:46;5.50;99.90
13433;DHT22;6789;47.678;9.158;2022-11-20T05:18:54;5.60;99.90
13433;DHT22;6789;47.678;9.158;2022-11-20T05:24:01;5.80;99.90
13433;DHT22;6789;47.678;9.158;2022-11-20T05:29:12;5.80;99.90
13433;DHT22;6789;47.678;9.158;2022-11-20T05:34:18;5.80;99.90
13433;DHT22;6789;47.678;9.158;2022-11-20T05:39:24;5.70;99.90
13433;DHT22;6789;47.678;9.158;2022-11-20T05:44:30;5.60;99.90
13433;DHT22;6789;47.678;9.158;2022-11-20T05:49:36;5.60;99.90
13433;DHT22;6789;47.678;9.158;2022-11-20T05:54:42;5.60;99.90
13433;DHT22;6789;47.678;9.158;2022-11-20T05:59:48;5.70;99.90
13433;DHT22;6789;47.678;9.158;2022-11-20T06:04:54;5.80;99.90
13433;DHT22;6789;47.678;9.158;2022-11-20T06:10:00;5.90;99.90
13433;DHT22;6789;47.678;9.158;2022-11-20T06:15:06;6.00;99.90
13433;DHT22;6789;47.678;9.158;2022-11-20T06:20:12;6.00;99.90
13433;DHT22;6789;47.678;9.158;2022-11-20T06:25:18;6.00;99.90
13433;DHT22;6789;47.678;9.158;2022-11-20T06:30:24;6.00;99.90
13433;DHT22;6789;47.678;9.158;2022-11-20T06:35:30;6.10;99.90
13433;DHT22;6789;47.678;9.158;2022-11-20T06:40:39;6.20;99.90
13433;DHT22;6789;47.678;9.158;2022-11-20T06:45:50;6.20;99.90
13433;DHT22;6789;47.678;9.158;2022-11-20T06:50:58;6.30;99.90
13433;DHT22;6789;47.678;9.158;2022-11-20T06:56:04;6.40;99.90
13433;DHT22;6789;47.678;9.158;2022-11-20T07:01:12;6.30;99.90
13433;DHT22;6789;47.678;9.158;2022-11-20T07:06:19;6.40;99.90
13433;DHT22;6789;47.678;9.158;2022-11-20T07:11:25;6.50;99.90
13433;DHT22;6789;47.678;9.158;2022-11-20T07:16:20;6.60;99.90
13433;DHT22;6789;47.678;9.158;2022-11-20T07:21:27;6.70;99.90
13433;DHT22;6789;47.678;9.158;2022-11-20T07:26:33;6.70;99.90
13433;DHT22;6789;47.678;9.158;2022-11-20T07:31:38;6.70;99.90
13433;DHT22;6789;47.678;9.158;2022-11-20T07:36:44;6.80;99.90
13433;DHT22;6789;47.678;9.158;2022-11-20T07:41:50;6.80;99.90
13433;DHT22;6789;47.678;9.158;2022-11-20T07:46:56;6.70;99.90
13433;DHT22;6789;47.678;9.158;2022-11-20T07:52:02;6.70;99.90
13433;DHT22;6789;47.678;9.158;2022-11-20T07:57:30;6.80;99.90
13433;DHT22;6789;47.678;9.158;2022-11-20T08:02:49;6.80;99.90
13433;DHT22;6789;47.678;9.158;2022-11-20T08:07:54;6.90;99.90
13433;DHT22;6789;47.678;9.158;2022-11-20T08:13:00;6.90;99.90
13433;DHT22;6789;47.678;9.158;2022-11-20T08:18:24;7.10;99.90
13433;DHT22;6789;47.678;9.158;2022-11-20T08:23:30;7.20;99.90
13433;DHT22;6789;47.678;9.158;2022-11-20T08:28:36;7.30;99.90
13433;DHT22;6789;47.678;9.158;2022-11-20T08:33:42;7.50;99.90
13433;DHT22;6789;47.678;9.158;2022-11-20T08:38:50;7.50;99.90
13433;DHT22;6789;47.678;9.158;2022-11-20T08:44:02;7.70;99.90
13433;DHT22;6789;47.678;9.158;2022-11-20T08:49:11;7.90;99.90
13433;DHT22;6789;47.678;9.158;2022-11-20T08:54:19;7.90;99.90
13433;DHT22;6789;47.678;9.158;2022-11-20T08:59:56;8.00;99.90
13433;DHT22;6789;47.678;9.158;2022-11-20T09:05:02;8.00;99.90
13433;DHT22;6789;47.678;9.158;2022-11-20T09:10:08;8.00;99.90
13433;DHT22;6789;47.678;9.158;2022-11-20T09:15:15;8.00;99.90
13433;DHT22;6789;47.678;9.158;2022-11-20T09:20:22;8.20;99.90
13433;DHT22;6789;47.678;9.158;2022-11-20T09:25:28;8.50;99.90
13433;DHT22;6789;47.678;9.158;2022-11-20T09:30:33;8.70;99.90
13433;DHT22;6789;47.678;9.158;2022-11-20T09:35:39;8.60;99.90
13433;DHT22;6789;47.678;9.158;2022-11-20T09:46:45;8.70;99.90
13433;DHT22;6789;47.678;9.158;2022-11-20T09:52:01;8.80;99.90
13433;DHT22;6789;47.678;9.158;2022-11-20T09:57:37;8.80;99.90
13433;DHT22;6789;47.678;9.158;2022-11-20T10:08:09;9.00;99.90
13433;DHT22;6789;47.678;9.158;2022-11-20T10:30:09;9.00;99.90
13433;DHT22;6789;47.678;9.158;2022-11-20T10:35:27;9.10;99.90
13433;DHT22;6789;47.678;9.158;2022-11-20T10:40:51;8.90;99.90
13433;DHT22;6789;47.678;9.158;2022-11-20T10:46:22;8.80;99.90
13433;DHT22;6789;47.678;9.158;2022-11-20T10:51:35;8.90;99.90
13433;DHT22;6789;47.678;9.158;2022-11-20T10:56:50;8.80;99.90
13433;DHT22;6789;47.678;9.158;2022-11-20T11:01:58;8.60;99.90
13433;DHT22;6789;47.678;9.158;2022-11-20T11:07:12;8.60;99.90
13433;DHT22;6789;47.678;9.158;2022-11-20T11:12:25;8.60;99.90
13433;DHT22;6789;47.678;9.158;2022-11-20T11:17:34;8.60;99.90
13433;DHT22;6789;47.678;9.158;2022-11-20T11:22:45;8.80;99.90
13433;DHT22;6789;47.678;9.158;2022-11-20T11:27:56;8.80;99.90
13433;DHT22;6789;47.678;9.158;2022-11-20T11:33:09;8.80;99.90
13433;DHT22;6789;47.678;9.158;2022-11-20T11:38:21;8.90;99.90
13433;DHT22;6789;47.678;9.158;2022-11-20T11:43:35;8.80;99.90
13433;DHT22;6789;47.678;9.158;2022-11-20T12:05:28;8.80;99.90
13433;DHT22;6789;47.678;9.158;2022-11-20T12:15:55;8.90;99.90
13433;DHT22;6789;47.678;9.158;2022-11-20T12:49:05;9.70;99.90
13433;DHT22;6789;47.678;9.158;2022-11-20T13:05:35;9.70;99.90
13433;DHT22;6789;47.678;9.158;2022-11-20T13:11:13;9.60;99.90
13433;DHT22;6789;47.678;9.158;2022-11-20T13:21:57;9.90;99.90
13433;DHT22;6789;47.678;9.158;2022-11-20T13:32:17;9.80;99.90
13433;DHT22;6789;47.678;9.158;2022-11-20T13:37:34;9.80;99.90
13433;DHT22;6789;47.678;9.158;2022-11-20T13:48:20;9.60;99.90
13433;DHT22;6789;47.678;9.158;2022-11-20T13:59:05;9.50;99.90
13433;DHT22;6789;47.678;9.158;2022-11-20T14:04:35;9.60;99.90
13433;DHT22;6789;47.678;9.158;2022-11-20T14:09:32;9.60;99.90
13433;DHT22;6789;47.678;9.158;2022-11-20T14:14:28;9.60;99.90
13433;DHT22;6789;47.678;9.158;2022-11-20T14:19:30;9.50;99.90
13433;DHT22;6789;47.678;9.158;2022-11-20T14:24:26;9.30;99.90
13433;DHT22;6789;47.678;9.158;2022-11-20T14:29:34;9.10;99.90
13433;DHT22;6789;47.678;9.158;2022-11-20T14:34:44;9.00;99.90
13433;DHT22;6789;47.678;9.158;2022-11-20T14:39:55;8.90;99.90
13433;DHT22;6789;47.678;9.158;2022-11-20T14:44:49;8.60;99.90
13433;DHT22;6789;47.678;9.158;2022-11-20T14:49:57;8.50;99.90
13433;DHT22;6789;47.678;9.158;2022-11-20T14:55:12;8.50;99.90
13433;DHT22;6789;47.678;9.158;2022-11-20T15:05:06;8.60;99.90
13433;DHT22;6789;47.678;9.158;2022-11-20T15:10:02;8.50;99.90
13433;DHT22;6789;47.678;9.158;2022-11-20T15:15:03;8.40;99.90
13433;DHT22;6789;47.678;9.158;2022-11-20T15:20:02;8.30;99.90
13433;DHT22;6789;47.678;9.158;2022-11-20T15:25:15;8.20;99.90
13433;DHT22;6789;47.678;9.158;2022-11-20T15:30:24;8.10;99.90
13433;DHT22;6789;47.678;9.158;2022-11-20T15:35:16;7.90;99.90
13433;DHT22;6789;47.678;9.158;2022-11-20T15:40:13;7.70;99.90
13433;DHT22;6789;47.678;9.158;2022-11-20T15:45:08;7.70;99.90
13433;DHT22;6789;47.678;9.158;2022-11-20T15:50:17;7.60;99.90
13433;DHT22;6789;47.678;9.158;2022-11-20T15:55:17;7.50;99.90
13433;DHT22;6789;47.678;9.158;2022-11-20T16:00:11;7.40;99.90
13433;DHT22;6789;47.678;9.158;2022-11-20T16:05:14;7.40;99.90
13433;DHT22;6789;47.678;9.158;2022-11-20T16:10:10;7.30;99.90
13433;DHT22;6789;47.678;9.158;2022-11-20T16:15:03;7.20;99.90
13433;DHT22;6789;47.678;9.158;2022-11-20T16:20:19;7.20;99.90
13433;DHT22;6789;47.678;9.158;2022-11-20T16:25:11;7.10;99.90
13433;DHT22;6789;47.678;9.158;2022-11-20T16:30:17;7.10;99.90
13433;DHT22;6789;47.678;9.158;2022-11-20T16:35:16;7.10;99.90
13433;DHT22;6789;47.678;9.158;2022-11-20T16:40:10;7.00;99.90
13433;DHT22;6789;47.678;9.158;2022-11-20T16:45:17;7.00;99.90
13433;DHT22;6789;47.678;9.158;2022-11-20T16:50:23;7.10;99.90
13433;DHT22;6789;47.678;9.158;2022-11-20T16:55:29;7.00;99.90
13433;DHT22;6789;47.678;9.158;2022-11-20T17:00:21;7.00;99.90
13433;DHT22;6789;47.678;9.158;2022-11-20T17:05:13;7.00;99.90
13433;DHT22;6789;47.678;9.158;2022-11-20T17:10:06;7.00;99.90
13433;DHT22;6789;47.678;9.158;2022-11-20T17:15:13;6.90;99.90
13433;DHT22;6789;47.678;9.158;2022-11-20T17:20:09;6.80;99.90
13433;DHT22;6789;47.678;9.158;2022-11-20T17:25:04;6.80;99.90
13433;DHT22;6789;47.678;9.158;2022-11-20T17:29:59;6.80;99.90
13433;DHT22;6789;47.678;9.158;2022-11-20T17:34:54;6.80;99.90
13433;DHT22;6789;47.678;9.158;2022-11-20T17:39:47;6.60;99.90
13433;DHT22;6789;47.678;9.158;2022-11-20T17:44:39;6.60;99.90
13433;DHT22;6789;47.678;9.158;2022-11-20T17:49:33;6.70;99.90
13433;DHT22;6789;47.678;9.158;2022-11-20T17:54:26;6.60;99.90
13433;DHT22;6789;47.678;9.158;2022-11-20T17:59:25;6.60;99.90
13433;DHT22;6789;47.678;9.158;2022-11-20T18:04:19;6.50;99.90
13433;DHT22;6789;47.678;9.158;2022-11-20T18:09:12;6.60;99.90
13433;DHT22;6789;47.678;9.158;2022-11-20T18:14:07;6.50;99.90
13433;DHT22;6789;47.678;9.158;2022-11-20T18:19:23;6.60;99.90
13433;DHT22;6789;47.678;9.158;2022-11-20T18:24:22;6.60;99.90
13433;DHT22;6789;47.678;9.158;2022-11-20T18:29:16;6.50;99.90
13433;DHT22;6789;47.678;9.158;2022-11-20T18:34:09;6.50;99.90
13433;DHT22;6789;47.678;9.158;2022-11-20T18:39:05;6.50;99.90
13433;DHT22;6789;47.678;9.158;2022-11-20T18:44:00;6.50;99.90
13433;DHT22;6789;47.678;9.158;2022-11-20T18:49:21;6.50;99.90
13433;DHT22;6789;47.678;9.158;2022-11-20T18:54:27;6.60;99.90
13433;DHT22;6789;47.678;9.158;2022-11-20T18:59:34;6.60;99.90
13433;DHT22;6789;47.678;9.158;2022-11-20T19:04:44;6.70;99.90
13433;DHT22;6789;47.678;9.158;2022-11-20T19:09:58;6.60;99.90
13433;DHT22;6789;47.678;9.158;2022-11-20T19:15:05;6.60;99.90
13433;DHT22;6789;47.678;9.158;2022-11-20T19:20:15;6.60;99.90
13433;DHT22;6789;47.678;9.158;2022-11-20T19:25:23;6.80;99.90
13433;DHT22;6789;47.678;9.158;2022-11-20T19:30:29;6.90;99.90
13433;DHT22;6789;47.678;9.158;2022-11-20T19:35:36;7.00;99.90
13433;DHT22;6789;47.678;9.158;2022-11-20T19:40:42;7.00;99.90
13433;DHT22;6789;47.678;9.158;2022-11-20T19:45:48;7.10;99.90
13433;DHT22;6789;47.678;9.158;2022-11-20T19:50:54;7.20;99.90
13433;DHT22;6789;47.678;9.158;2022-11-20T19:56:01;7.10;99.90
13433;DHT22;6789;47.678;9.158;2022-11-20T20:01:16;7.00;99.90
13433;DHT22;6789;47.678;9.158;2022-11-20T20:06:25;6.80;99.90
13433;DHT22;6789;47.678;9.158;2022-11-20T20:11:33;6.70;99.90
13433;DHT22;6789;47.678;9.158;2022-11-20T20:16:43;6.60;99.90
13433;DHT22;6789;47.678;9.158;2022-11-20T20:21:50;6.50;99.90
13433;DHT22;6789;47.678;9.158;2022-11-20T20:26:56;6.40;99.90
13433;DHT22;6789;47.678;9.158;2022-11-20T20:32:02;6.20;99.90
13433;DHT22;6789;47.678;9.158;2022-11-20T20:37:08;6.30;99.90
13433;DHT22;6789;47.678;9.158;2022-11-20T20:42:18;6.20;99.90
13433;DHT22;6789;47.678;9.158;2022-11-20T20:47:30;6.20;99.90
13433;DHT22;6789;47.678;9.158;2022-11-20T20:52:39;6.00;99.90
13433;DHT22;6789;47.678;9.158;2022-11-20T20:57:46;5.90;99.90
13433;DHT22;6789;47.678;9.158;2022-11-20T21:02:52;5.90;99.90
13433;DHT22;6789;47.678;9.158;2022-11-20T21:07:59;5.90;99.90
13433;DHT22;6789;47.678;9.158;2022-11-20T21:13:24;5.80;99.90
13433;DHT22;6789;47.678;9.158;2022-11-20T21:18:31;5.80;99.90
13433;DHT22;6789;47.678;9.158;2022-11-20T21:23:38;5.70;99.90
13433;DHT22;6789;47.678;9.158;2022-11-20T21:28:46;5.60;99.90
13433;DHT22;6789;47.678;9.158;2022-11-20T21:33:54;5.50;99.90
13433;DHT22;6789;47.678;9.158;2022-11-20T21:39:03;5.50;99.90
13433;DHT22;6789;47.678;9.158;2022-11-20T21:44:12;5.40;99.90
13433;DHT22;6789;47.678;9.158;2022-11-20T21:49:19;5.50;99.90
13433;DHT22;6789;47.678;9.158;2022-11-20T21:54:25;5.40;99.90
13433;DHT22;6789;47.678;9.158;2022-11-20T21:59:33;5.50;99.90
13433;DHT22;6789;47.678;9.158;2022-11-20T22:04:40;5.50;99.90
13433;DHT22;6789;47.678;9.158;2022-11-20T22:09:46;5.50;99.90
13433;DHT22;6789;47.678;9.158;2022-11-20T22:14:52;5.50;99.90
13433;DHT22;6789;47.678;9.158;2022-11-20T22:19:58;5.60;99.90
13433;DHT22;6789;47.678;9.158;2022-11-20T22:25:04;5.60;99.90
13433;DHT22;6789;47.678;9.158;2022-11-20T22:30:11;5.70;99.90
13433;DHT22;6789;47.678;9.158;2022-11-20T22:35:17;5.80;99.90
13433;DHT22;6789;47.678;9.158;2022-11-20T22:40:23;6.00;99.90
13433;DHT22;6789;47.678;9.158;2022-11-20T22:45:29;5.90;99.90
13433;DHT22;6789;47.678;9.158;2022-11-20T22:50:37;5.90;99.90
13433;DHT22;6789;47.678;9.158;2022-11-20T22:55:48;5.80;99.90
13433;DHT22;6789;47.678;9.158;2022-11-20T23:00:54;5.70;99.90
13433;DHT22;6789;47.678;9.158;2022-11-20T23:06:00;5.70;99.90
13433;DHT22;6789;47.678;9.158;2022-11-20T23:11:19;5.70;99.90
13433;DHT22;6789;47.678;9.158;2022-11-20T23:16:29;5.80;99.90
13433;DHT22;6789;47.678;9.158;2022-11-20T23:21:38;5.90;99.90
13433;DHT22;6789;47.678;9.158;2022-11-20T23:26:46;5.80;99.90
13433;DHT22;6789;47.678;9.158;2022-11-20T23:31:52;5.80;99.90
13433;DHT22;6789;47.678;9.158;2022-11-20T23:36:58;5.70;99.90
13433;DHT22;6789;47.678;9.158;2022-11-20T23:42:05;5.70;99.90
13433;DHT22;6789;47.678;9.158;2022-11-20T23:47:11;5.70;99.90
13433;DHT22;6789;47.678;9.158;2022-11-20T23:52:03;5.60;99.90
13433;DHT22;6789;47.678;9.158;2022-11-20T23:57:09;5.70;99.90
